Time;durP1;ratioP1;P1;durP2;ratioP2;P2;SDS_P1;SDS_P2;PMS_P1;PMS_P2;Temp;Humidity;BMP_temperature;BMP_pressure;BME280_temperature;BME280_humidity;BME280_pressure;Samples;Min_cycle;Max_cycle;Signal;HPM_P1;HPM_P2
2021/08/07 00:01:17;;;;;;;12.45;2.03;;;20.50;90.80;;;;;;4265468;27;20065;-86
2021/08/07 00:03:20;;;;;;;7.70;1.67;;;20.60;90.60;;;;;;4264931;27;20058;-83
2021/08/07 00:05:25;;;;;;;9.48;1.70;;;20.70;90.60;;;;;;4265263;27;20104;-87
2021/08/07 00:07:28;;;;;;;8.02;2.05;;;20.70;90.70;;;;;;4265019;27;20663;-81
2021/08/07 00:09:31;;;;;;;10.25;1.70;;;20.60;90.80;;;;;;4265113;27;20055;-77
2021/08/07 00:11:34;;;;;;;6.15;1.55;;;20.60;90.80;;;;;;4265226;27;20655;-78
2021/08/07 00:13:37;;;;;;;10.40;1.88;;;20.50;90.90;;;;;;4265605;27;20444;-83
2021/08/07 00:15:40;;;;;;;7.63;1.60;;;20.50;91.00;;;;;;4248380;27;20523;-83
2021/08/07 00:17:44;;;;;;;9.38;1.73;;;20.50;90.90;;;;;;4269109;27;20043;-76
2021/08/07 00:19:47;;;;;;;7.93;2.35;;;20.50;90.80;;;;;;4270369;27;20047;-77
2021/08/07 00:21:52;;;;;;;5.28;1.70;;;20.40;91.10;;;;;;4250447;27;20054;-84
2021/08/07 00:23:55;;;;;;;8.40;1.92;;;20.20;91.50;;;;;;4268405;27;20051;-81
2021/08/07 00:25:58;;;;;;;8.13;1.70;;;20.30;91.30;;;;;;4251084;27;20148;-86
2021/08/07 00:28:01;;;;;;;6.20;1.50;;;20.20;91.40;;;;;;4268619;27;20058;-83
2021/08/07 00:30:06;;;;;;;10.43;2.55;;;20.40;91.10;;;;;;4268384;27;20042;-81
2021/08/07 00:32:09;;;;;;;7.82;1.80;;;20.40;91.10;;;;;;4268419;27;20058;-82
2021/08/07 00:34:12;;;;;;;6.75;1.60;;;20.50;90.60;;;;;;4268217;27;20074;-81
2021/08/07 00:36:14;;;;;;;6.60;1.60;;;20.60;90.80;;;;;;4268014;27;20080;-84
2021/08/07 00:38:19;;;;;;;11.88;2.40;;;20.60;90.50;;;;;;4268181;27;20054;-84
2021/08/07 00:40:22;;;;;;;9.65;1.77;;;20.40;90.90;;;;;;4268417;27;20062;-80
2021/08/07 00:42:25;;;;;;;5.85;1.80;;;20.40;91.00;;;;;;4268862;27;20054;-85
2021/08/07 00:44:28;;;;;;;7.38;1.90;;;20.40;90.90;;;;;;4267976;27;20051;-83
2021/08/07 00:46:31;;;;;;;9.20;1.83;;;20.40;90.70;;;;;;4267873;27;20055;-85
2021/08/07 00:48:34;;;;;;;6.35;1.98;;;20.40;90.60;;;;;;4268318;27;20047;-80
2021/08/07 00:50:37;;;;;;;7.28;1.70;;;20.50;90.50;;;;;;4268077;27;20051;-79
2021/08/07 00:52:42;;;;;;;6.85;1.58;;;20.50;90.50;;;;;;4268783;27;20054;-84
2021/08/07 00:54:46;;;;;;;7.88;2.33;;;20.40;90.70;;;;;;4267974;27;20384;-85
2021/08/07 00:56:49;;;;;;;6.80;1.63;;;20.40;90.70;;;;;;4251322;27;20054;-86
2021/08/07 00:58:52;;;;;;;6.70;1.60;;;20.40;90.60;;;;;;4267787;27;20054;-80
2021/08/07 01:00:55;;;;;;;9.70;2.15;;;20.30;90.60;;;;;;4270624;27;20049;-87
2021/08/07 01:03:05;;;;;;;7.88;1.85;;;20.30;90.80;;;;;;4268726;27;20047;-79
2021/08/07 01:05:15;;;;;;;6.78;1.48;;;20.20;90.80;;;;;;4252537;27;20043;-88
2021/08/07 01:07:28;;;;;;;6.93;1.67;;;20.20;90.90;;;;;;4251616;27;20085;-89
2021/08/07 01:09:41;;;;;;;10.00;1.90;;;20.10;91.20;;;;;;4250632;27;20055;-87
2021/08/07 01:11:53;;;;;;;7.25;1.42;;;20.10;91.20;;;;;;4250479;27;20051;-87
2021/08/07 01:13:59;;;;;;;8.77;1.33;;;20.20;91.00;;;;;;4263260;27;20050;-81
2021/08/07 01:16:09;;;;;;;8.25;2.15;;;20.30;91.10;;;;;;4269595;27;20119;-88
2021/08/07 01:18:14;;;;;;;8.45;1.55;;;20.30;90.90;;;;;;4270202;27;20066;-80
2021/08/07 01:20:22;;;;;;;5.35;1.75;;;20.20;91.20;;;;;;4270522;27;20055;-84
2021/08/07 01:22:32;;;;;;;10.25;2.00;;;20.10;91.30;;;;;;4269766;27;20046;-83
2021/08/07 01:24:40;;;;;;;13.63;2.38;;;20.10;91.40;;;;;;4272510;27;20043;-86
2021/08/07 01:26:51;;;;;;;8.38;1.85;;;20.10;91.50;;;;;;4267861;27;20042;-80
2021/08/07 01:28:57;;;;;;;8.88;1.92;;;20.10;91.50;;;;;;4267976;27;20061;-86
2021/08/07 01:31:03;;;;;;;6.07;2.00;;;20.10;91.40;;;;;;4267695;27;20131;-82
2021/08/07 01:33:06;;;;;;;6.15;1.55;;;20.10;91.50;;;;;;4267517;27;20062;-87
2021/08/07 01:35:10;;;;;;;6.68;1.70;;;20.10;91.20;;;;;;4267266;27;20061;-81
2021/08/07 01:37:14;;;;;;;7.38;2.50;;;20.00;91.60;;;;;;4266949;27;20058;-85
2021/08/07 01:39:17;;;;;;;7.30;1.60;;;19.90;91.90;;;;;;4267731;27;20042;-85
2021/08/07 01:41:22;;;;;;;10.18;2.03;;;19.90;92.00;;;;;;4267066;27;20492;-86
2021/08/07 01:43:25;;;;;;;10.18;1.67;;;19.80;92.10;;;;;;4267720;27;20057;-81
2021/08/07 01:45:29;;;;;;;8.65;1.50;;;19.70;92.00;;;;;;4267990;27;20444;-83
2021/08/07 01:47:41;;;;;;;7.45;1.67;;;19.70;92.10;;;;;;4266432;27;20054;-88
2021/08/07 01:49:53;;;;;;;6.00;1.67;;;19.70;92.20;;;;;;4248115;27;20133;-86
2021/08/07 01:52:00;;;;;;;9.98;2.15;;;19.70;92.40;;;;;;4266219;27;20047;-87
2021/08/07 01:54:05;;;;;;;8.40;1.50;;;19.70;92.40;;;;;;4266732;27;20062;-79
2021/08/07 01:56:14;;;;;;;6.10;1.50;;;19.70;92.20;;;;;;4267203;27;20039;-85
2021/08/07 01:58:23;;;;;;;8.27;1.65;;;19.60;92.30;;;;;;4266600;27;20054;-82
2021/08/07 02:00:26;;;;;;;8.60;1.95;;;19.60;92.40;;;;;;4266481;27;20384;-85
2021/08/07 02:02:31;;;;;;;6.20;2.17;;;19.60;92.30;;;;;;4266567;27;20062;-79
2021/08/07 02:04:35;;;;;;;10.88;1.70;;;19.60;92.20;;;;;;4266103;27;20099;-83
2021/08/07 02:06:39;;;;;;;7.78;1.67;;;19.60;92.40;;;;;;4266680;27;20411;-77
2021/08/07 02:08:42;;;;;;;9.33;2.33;;;19.60;92.20;;;;;;4266860;27;20095;-84
2021/08/07 02:10:48;;;;;;;15.20;1.77;;;19.60;92.30;;;;;;4266184;27;20049;-83
2021/08/07 02:12:52;;;;;;;9.07;1.58;;;19.50;92.40;;;;;;4266219;27;20396;-83
2021/08/07 02:14:56;;;;;;;8.52;1.63;;;19.40;92.60;;;;;;4266475;27;20110;-79
2021/08/07 02:17:01;;;;;;;6.65;1.58;;;19.40;92.50;;;;;;4248256;27;20043;-85
2021/08/07 02:19:05;;;;;;;;;;;19.50;92.40;;;;;;4248503;27;20423;-85
2021/08/07 02:21:10;;;;;;;7.65;1.80;;;19.50;92.50;;;;;;4266582;27;19925;-81
2021/08/07 02:23:15;;;;;;;6.85;1.55;;;19.30;92.90;;;;;;4269452;27;20093;-81
2021/08/07 02:25:19;;;;;;;8.77;1.77;;;19.40;92.60;;;;;;4269112;27;20069;-86
2021/08/07 02:27:22;;;;;;;11.13;2.00;;;19.40;92.40;;;;;;4266837;27;20043;-83
2021/08/07 02:29:26;;;;;;;6.97;1.92;;;19.60;92.30;;;;;;4266041;27;20049;-84
2021/08/07 02:31:31;;;;;;;12.60;2.00;;;19.60;92.20;;;;;;4266102;27;20062;-87
2021/08/07 02:33:35;;;;;;;;;;;19.50;92.20;;;;;;4266822;27;20058;-83
2021/08/07 02:35:40;;;;;;;7.60;1.52;;;19.60;92.20;;;;;;4247859;27;19919;-83
2021/08/07 02:37:43;;;;;;;7.05;1.95;;;19.60;92.20;;;;;;4266179;27;20046;-85
2021/08/07 02:39:48;;;;;;;11.25;2.33;;;19.70;91.90;;;;;;4247853;27;20059;-84
2021/08/07 02:41:51;;;;;;;9.23;2.20;;;19.70;92.00;;;;;;4265694;27;20059;-85
2021/08/07 02:43:55;;;;;;;7.63;2.08;;;19.80;91.70;;;;;;4266007;27;20466;-85
2021/08/07 02:45:59;;;;;;;10.10;2.00;;;19.80;91.60;;;;;;4266096;27;20058;-86
2021/08/07 02:48:02;;;;;;;6.85;1.63;;;19.90;91.30;;;;;;4265950;27;20054;-80
2021/08/07 02:50:06;;;;;;;7.30;1.70;;;19.90;91.20;;;;;;4266594;27;20053;-85
2021/08/07 02:52:11;;;;;;;7.43;1.70;;;19.90;91.00;;;;;;4266825;27;20054;-86
2021/08/07 02:54:14;;;;;;;7.43;1.75;;;20.00;90.80;;;;;;4266611;27;20382;-84
2021/08/07 02:56:17;;;;;;;8.55;1.65;;;20.10;91.10;;;;;;4265908;27;20050;-77
2021/08/07 02:58:22;;;;;;;5.68;1.50;;;20.10;90.80;;;;;;4247833;27;20055;-84
2021/08/07 03:00:25;;;;;;;8.77;2.10;;;20.10;90.80;;;;;;4248226;27;20054;-86
2021/08/07 03:02:28;;;;;;;8.93;1.92;;;20.20;90.60;;;;;;4248874;27;20043;-86
2021/08/07 03:04:31;;;;;;;9.30;1.55;;;20.10;90.70;;;;;;4267350;27;20054;-80
2021/08/07 03:06:34;;;;;;;7.93;1.65;;;20.10;90.80;;;;;;4266177;27;20119;-84
2021/08/07 03:08:40;;;;;;;7.65;1.90;;;20.00;90.90;;;;;;4256349;27;20606;-85
2021/08/07 03:10:43;;;;;;;10.25;2.03;;;20.00;90.70;;;;;;4248244;27;20050;-86
2021/08/07 03:12:47;;;;;;;11.90;2.05;;;20.00;91.00;;;;;;4265141;27;20050;-82
2021/08/07 03:14:50;;;;;;;6.93;1.67;;;20.00;90.80;;;;;;4265356;27;20046;-82
2021/08/07 03:16:53;;;;;;;9.40;1.80;;;20.00;90.70;;;;;;4265330;27;20494;-81
2021/08/07 03:18:56;;;;;;;7.10;1.50;;;20.00;90.80;;;;;;4265611;27;20073;-79
2021/08/07 03:20:59;;;;;;;7.75;1.80;;;20.00;90.60;;;;;;4248509;27;20055;-80
2021/08/07 03:23:04;;;;;;;9.02;2.15;;;20.00;91.00;;;;;;4265435;27;20054;-81
2021/08/07 03:25:10;;;;;;;7.63;1.77;;;20.00;90.70;;;;;;4265825;27;20046;-86
2021/08/07 03:27:13;;;;;;;11.73;2.35;;;20.00;90.70;;;;;;4265495;27;20051;-79
2021/08/07 03:29:16;;;;;;;12.15;2.00;;;20.00;90.70;;;;;;4265467;27;20403;-80
2021/08/07 03:31:19;;;;;;;7.97;2.00;;;20.10;90.60;;;;;;4265491;27;20046;-83
2021/08/07 03:33:22;;;;;;;8.32;1.75;;;20.10;90.60;;;;;;4265381;27;20425;-84
2021/08/07 03:35:25;;;;;;;7.30;1.67;;;20.00;90.80;;;;;;4265655;27;20050;-84
2021/08/07 03:37:28;;;;;;;6.80;1.88;;;20.00;90.90;;;;;;4265649;27;20061;-85
2021/08/07 03:39:31;;;;;;;7.90;2.35;;;20.00;90.90;;;;;;4265645;27;20115;-87
2021/08/07 03:41:35;;;;;;;8.45;2.05;;;20.00;90.70;;;;;;4266217;27;20402;-88
2021/08/07 03:43:38;;;;;;;8.73;1.88;;;20.10;90.80;;;;;;4266506;27;20456;-84
2021/08/07 03:45:41;;;;;;;9.82;1.80;;;20.00;91.20;;;;;;4265740;27;20051;-87
2021/08/07 03:47:46;;;;;;;9.73;2.08;;;20.00;91.10;;;;;;4265587;27;20055;-86
2021/08/07 03:49:49;;;;;;;5.93;1.55;;;20.00;91.30;;;;;;4266138;27;20054;-85
2021/08/07 03:51:52;;;;;;;6.65;1.52;;;20.00;91.40;;;;;;4274098;27;20058;-86
2021/08/07 03:53:55;;;;;;;4.97;1.80;;;20.00;91.20;;;;;;4277536;27;20255;-79
2021/08/07 03:55:58;;;;;;;9.95;2.10;;;20.10;91.30;;;;;;4277586;27;20065;-85
2021/08/07 03:58:03;;;;;;;11.68;2.00;;;20.00;91.50;;;;;;4277006;27;20532;-82
2021/08/07 04:00:07;;;;;;;10.38;2.25;;;20.00;91.20;;;;;;4257642;27;20055;-86
2021/08/07 04:02:10;;;;;;;6.18;1.80;;;20.00;91.40;;;;;;4272151;27;20099;-83
2021/08/07 04:04:13;;;;;;;9.07;1.90;;;20.00;91.70;;;;;;4272774;27;20046;-82
2021/08/07 04:06:16;;;;;;;9.70;1.92;;;19.90;91.70;;;;;;4273873;27;20047;-83
2021/08/07 04:08:19;;;;;;;9.35;1.75;;;19.90;91.80;;;;;;4275339;27;20050;-85
2021/08/07 04:10:22;;;;;;;10.23;2.03;;;20.00;91.80;;;;;;4254759;27;20047;-85
2021/08/07 04:12:25;;;;;;;8.05;2.13;;;20.00;91.60;;;;;;4254134;27;20051;-78
2021/08/07 04:14:30;;;;;;;13.82;2.83;;;19.90;91.80;;;;;;4254170;27;20066;-82
2021/08/07 04:16:34;;;;;;;9.52;2.00;;;19.90;91.80;;;;;;4253227;27;20051;-81
2021/08/07 04:18:37;;;;;;;10.27;1.83;;;19.90;91.80;;;;;;4253883;27;20047;-86
2021/08/07 04:20:40;;;;;;;12.43;2.20;;;19.80;92.00;;;;;;4253201;27;20055;-82
2021/08/07 04:22:43;;;;;;;11.32;2.58;;;19.80;92.30;;;;;;4251720;27;20046;-84
2021/08/07 04:24:46;;;;;;;5.40;1.60;;;19.80;92.10;;;;;;4233689;28;20468;-85
2021/08/07 04:26:49;;;;;;;6.95;2.15;;;19.80;92.00;;;;;;4233596;28;20059;-83
2021/08/07 04:28:52;;;;;;;9.68;2.35;;;19.80;92.00;;;;;;4251683;27;20092;-84
2021/08/07 04:30:57;;;;;;;9.65;1.90;;;19.80;92.20;;;;;;4251473;27;20055;-79
2021/08/07 04:33:00;;;;;;;8.90;1.83;;;19.90;91.90;;;;;;4251308;27;20046;-78
2021/08/07 04:35:04;;;;;;;14.25;2.42;;;19.90;92.10;;;;;;4251136;27;20078;-79
2021/08/07 04:37:07;;;;;;;8.60;1.93;;;19.90;92.20;;;;;;4250895;27;20058;-80
2021/08/07 04:39:11;;;;;;;10.63;2.00;;;19.90;91.90;;;;;;4232779;28;20099;-80
2021/08/07 04:41:14;;;;;;;11.40;2.20;;;20.00;92.00;;;;;;4251102;27;20375;-83
2021/08/07 04:43:16;;;;;;;7.82;2.03;;;20.00;92.00;;;;;;4251014;27;20549;-80
2021/08/07 04:45:20;;;;;;;7.28;1.65;;;20.00;92.20;;;;;;4250861;27;20055;-79
2021/08/07 04:47:24;;;;;;;12.68;2.38;;;19.90;92.20;;;;;;4250633;27;20059;-78
2021/08/07 04:49:27;;;;;;;9.93;1.60;;;19.90;92.30;;;;;;4253459;27;20051;-84
2021/08/07 04:51:30;;;;;;;8.45;2.25;;;19.80;92.40;;;;;;4252120;27;20059;-86
2021/08/07 04:53:33;;;;;;;12.00;2.20;;;19.70;92.90;;;;;;4251197;27;20059;-84
2021/08/07 04:55:36;;;;;;;14.30;2.30;;;19.70;93.00;;;;;;4250863;27;20175;-83
2021/08/07 04:57:39;;;;;;;10.15;2.00;;;19.60;93.10;;;;;;4232918;28;20055;-82
2021/08/07 04:59:42;;;;;;;16.08;2.30;;;19.60;93.20;;;;;;4250007;27;20055;-75
2021/08/07 05:01:45;;;;;;;11.57;2.13;;;19.60;93.00;;;;;;4247778;27;20117;-75
2021/08/07 05:03:50;;;;;;;8.48;2.10;;;19.60;93.10;;;;;;4254436;27;20062;-76
2021/08/07 05:05:53;;;;;;;11.05;2.00;;;19.70;93.20;;;;;;4267587;27;20038;-84
2021/08/07 05:07:56;;;;;;;17.40;2.40;;;19.70;93.10;;;;;;4267698;27;20059;-82
2021/08/07 05:10:00;;;;;;;10.18;2.08;;;19.60;93.40;;;;;;4267658;27;20072;-86
2021/08/07 05:12:04;;;;;;;12.87;2.80;;;19.60;93.40;;;;;;4249248;27;20628;-84
2021/08/07 05:14:07;;;;;;;12.75;2.58;;;19.60;93.50;;;;;;4253640;27;20059;-86
2021/08/07 05:16:10;;;;;;;9.07;2.03;;;19.60;93.60;;;;;;4250852;27;20051;-85
2021/08/07 05:18:13;;;;;;;9.95;2.30;;;19.70;93.40;;;;;;4250354;27;20058;-85
2021/08/07 05:20:17;;;;;;;12.13;2.25;;;19.60;93.60;;;;;;4250716;27;20407;-80
2021/08/07 05:22:21;;;;;;;13.38;2.13;;;19.60;94.00;;;;;;4250486;27;20051;-80
2021/08/07 05:24:24;;;;;;;14.55;2.08;;;19.60;93.80;;;;;;4250296;27;20521;-84
2021/08/07 05:26:27;;;;;;;12.23;2.50;;;19.70;93.40;;;;;;4250161;27;20087;-84
2021/08/07 05:28:30;;;;;;;8.32;2.03;;;19.80;93.50;;;;;;4250478;27;20067;-80
2021/08/07 05:30:33;;;;;;;13.70;2.15;;;19.70;93.40;;;;;;4249950;27;20430;-82
2021/08/07 05:32:36;;;;;;;11.70;2.13;;;19.80;93.20;;;;;;4250513;27;20426;-80
2021/08/07 05:34:39;;;;;;;12.40;2.47;;;19.90;93.10;;;;;;4250146;27;20051;-82
2021/08/07 05:36:43;;;;;;;15.75;2.95;;;19.90;93.20;;;;;;4250229;27;20055;-82
2021/08/07 05:38:46;;;;;;;11.90;2.30;;;20.00;93.30;;;;;;4250343;27;20047;-83
2021/08/07 05:40:51;;;;;;;14.32;2.78;;;20.00;93.60;;;;;;4250392;27;20039;-81
2021/08/07 05:42:54;;;;;;;11.05;2.28;;;19.90;93.30;;;;;;4250855;27;20043;-77
2021/08/07 05:44:57;;;;;;;20.25;3.22;;;20.10;93.10;;;;;;4250520;27;20059;-81
2021/08/07 05:47:00;;;;;;;10.18;2.22;;;20.10;93.10;;;;;;4249914;27;20073;-84
2021/08/07 05:49:03;;;;;;;9.85;2.30;;;20.00;93.30;;;;;;4249755;27;20058;-83
2021/08/07 05:51:06;;;;;;;11.70;2.55;;;20.10;93.20;;;;;;4250169;27;20054;-83
2021/08/07 05:53:10;;;;;;;11.88;2.08;;;20.10;93.20;;;;;;4249823;27;20047;-83
2021/08/07 05:55:13;;;;;;;13.57;2.28;;;20.20;93.40;;;;;;4249446;27;20054;-85
2021/08/07 05:57:17;;;;;;;11.27;2.15;;;20.20;93.20;;;;;;4231800;28;20471;-82
2021/08/07 05:59:20;;;;;;;14.70;2.95;;;20.20;93.40;;;;;;4249170;27;20055;-84
2021/08/07 06:01:23;;;;;;;11.52;2.30;;;20.10;93.20;;;;;;4231745;27;20091;-84
2021/08/07 06:03:26;;;;;;;12.23;2.47;;;20.10;93.40;;;;;;4253263;27;20054;-81
2021/08/07 06:05:30;;;;;;;13.43;2.40;;;20.10;93.30;;;;;;4266690;27;20050;-84
2021/08/07 06:07:32;;;;;;;10.77;2.28;;;20.00;93.90;;;;;;4266083;27;20510;-82
2021/08/07 06:09:37;;;;;;;10.93;2.47;;;19.80;94.10;;;;;;4248280;27;20055;-86
2021/08/07 06:11:40;;;;;;;14.52;2.33;;;19.90;94.10;;;;;;4266648;27;20058;-84
2021/08/07 06:13:47;;;;;;;10.27;2.42;;;19.90;94.10;;;;;;4255231;27;20108;-78
2021/08/07 06:15:50;;;;;;;11.05;2.53;;;20.10;94.00;;;;;;4249385;27;20061;-83
2021/08/07 06:17:53;;;;;;;14.95;2.63;;;20.20;93.90;;;;;;4231624;28;20052;-81
2021/08/07 06:19:56;;;;;;;12.00;2.45;;;20.20;93.60;;;;;;4249667;27;20472;-81
2021/08/07 06:21:59;;;;;;;11.50;2.50;;;20.10;94.00;;;;;;4249478;27;20107;-85
2021/08/07 06:24:04;;;;;;;10.63;2.20;;;20.10;94.00;;;;;;4247972;27;20055;-80
2021/08/07 06:26:10;;;;;;;11.82;2.10;;;20.10;94.00;;;;;;4229182;28;20064;-77
2021/08/07 06:28:13;;;;;;;13.65;2.55;;;20.00;94.30;;;;;;4247441;27;20054;-78
2021/08/07 06:30:19;;;;;;;10.85;2.72;;;20.10;94.30;;;;;;4247379;27;20051;-77
2021/08/07 06:32:22;;;;;;;8.80;2.08;;;20.00;94.40;;;;;;4247404;27;20054;-76
2021/08/07 06:34:25;;;;;;;14.77;2.50;;;20.00;94.30;;;;;;4247553;27;20100;-85
2021/08/07 06:36:28;;;;;;;18.52;2.78;;;19.90;94.50;;;;;;4247836;27;20069;-78
2021/08/07 06:38:31;;;;;;;15.57;2.95;;;19.90;94.50;;;;;;4247229;27;20059;-77
2021/08/07 06:40:35;;;;;;;10.10;2.30;;;19.90;94.70;;;;;;4247417;27;20488;-77
2021/08/07 06:42:39;;;;;;;10.35;2.10;;;20.00;94.40;;;;;;4247589;27;20406;-77
2021/08/07 06:44:42;;;;;;;14.40;2.35;;;19.90;94.60;;;;;;4247407;27;20058;-76
2021/08/07 06:46:45;;;;;;;13.13;2.03;;;19.70;95.00;;;;;;4228957;28;20134;-83
2021/08/07 06:48:48;;;;;;;6.43;1.63;;;19.80;95.00;;;;;;4247506;27;20059;-77
2021/08/07 06:50:52;;;;;;;13.20;2.30;;;19.60;95.30;;;;;;4247582;27;20047;-76
2021/08/07 06:52:55;;;;;;;9.80;2.00;;;19.60;95.40;;;;;;4247721;27;20066;-82
2021/08/07 06:54:59;;;;;;;10.30;1.95;;;19.60;95.50;;;;;;4247580;27;20108;-77
2021/08/07 06:57:02;;;;;;;11.10;2.38;;;19.70;95.20;;;;;;4247371;27;20058;-74
2021/08/07 06:59:06;;;;;;;13.68;2.38;;;19.50;95.70;;;;;;4246688;27;20502;-76
2021/08/07 07:01:10;;;;;;;11.50;2.38;;;19.50;95.80;;;;;;4228587;28;20058;-78
2021/08/07 07:03:13;;;;;;;11.55;1.98;;;19.70;95.60;;;;;;4248704;27;20513;-78
2021/08/07 07:05:17;;;;;;;12.38;2.20;;;19.70;95.60;;;;;;4263861;27;20054;-78
2021/08/07 07:07:20;;;;;;;8.73;2.35;;;19.70;95.50;;;;;;4264106;27;20083;-77
2021/08/07 07:09:23;;;;;;;12.50;2.50;;;19.70;95.70;;;;;;4263773;27;20054;-76
2021/08/07 07:11:26;;;;;;;9.63;2.05;;;19.80;95.50;;;;;;4263501;27;20083;-76
2021/08/07 07:13:29;;;;;;;15.07;2.85;;;19.90;95.60;;;;;;4263883;27;20053;-77
2021/08/07 07:15:34;;;;;;;14.18;2.60;;;19.90;95.60;;;;;;4263874;27;20449;-81
2021/08/07 07:17:37;;;;;;;12.75;2.40;;;19.90;95.50;;;;;;4263936;27;20119;-76
2021/08/07 07:19:40;;;;;;;9.40;2.35;;;20.00;95.50;;;;;;4263804;27;20058;-77
2021/08/07 07:21:43;;;;;;;11.75;2.40;;;20.00;95.60;;;;;;4264134;27;20065;-76
2021/08/07 07:23:46;;;;;;;10.48;1.88;;;19.90;95.70;;;;;;4264021;27;20055;-84
2021/08/07 07:25:50;;;;;;;12.80;2.88;;;20.00;95.60;;;;;;4263206;27;20057;-77
2021/08/07 07:27:53;;;;;;;4.85;1.80;;;19.80;95.90;;;;;;4263619;27;20046;-76
2021/08/07 07:29:57;;;;;;;12.02;2.33;;;19.90;96.00;;;;;;4263900;27;20046;-76
2021/08/07 07:32:02;;;;;;;9.68;1.90;;;19.90;96.00;;;;;;4263891;27;20053;-80
2021/08/07 07:34:04;;;;;;;;;;;19.90;96.20;;;;;;4265493;27;20057;-79
2021/08/07 07:36:07;;;;;;;8.75;1.92;;;20.10;96.00;;;;;;4246802;27;19941;-76
2021/08/07 07:38:11;;;;;;;14.85;2.42;;;20.40;95.80;;;;;;4264162;27;20077;-76
2021/08/07 07:40:14;;;;;;;9.77;2.33;;;20.50;95.60;;;;;;4264179;27;20432;-77
2021/08/07 07:42:17;;;;;;;11.15;1.90;;;20.60;95.30;;;;;;4263951;27;20074;-76
2021/08/07 07:44:20;;;;;;;8.90;2.03;;;20.80;95.30;;;;;;4263715;27;20055;-77
2021/08/07 07:46:23;;;;;;;16.55;2.22;;;20.80;95.10;;;;;;4245580;27;20055;-75
2021/08/07 07:48:27;;;;;;;8.88;1.98;;;20.80;95.10;;;;;;4263995;27;20460;-76
2021/08/07 07:50:30;;;;;;;8.27;1.63;;;20.80;94.80;;;;;;4244975;27;20098;-84
2021/08/07 07:52:33;;;;;;;12.35;2.42;;;20.90;94.80;;;;;;4263625;27;20047;-85
2021/08/07 07:54:36;;;;;;;12.43;2.63;;;20.90;94.70;;;;;;4263783;27;20430;-78
2021/08/07 07:56:39;;;;;;;13.18;2.00;;;21.00;94.50;;;;;;4263734;27;20083;-76
2021/08/07 07:58:42;;;;;;;8.98;2.45;;;20.90;94.50;;;;;;4263874;27;20055;-82
2021/08/07 08:00:45;;;;;;;10.75;1.88;;;21.10;94.40;;;;;;4264105;27;20128;-78
2021/08/07 08:02:48;;;;;;;10.93;2.63;;;21.10;94.20;;;;;;4245783;27;20100;-75
2021/08/07 08:04:53;;;;;;;9.95;2.38;;;21.00;94.10;;;;;;4263487;27;20050;-82
2021/08/07 08:06:56;;;;;;;7.95;2.08;;;21.10;94.10;;;;;;4263530;27;20046;-75
2021/08/07 08:08:59;;;;;;;8.38;1.70;;;21.10;94.00;;;;;;4263453;27;20070;-75
2021/08/07 08:11:02;;;;;;;6.28;1.58;;;21.20;93.70;;;;;;4263296;27;20107;-77
2021/08/07 08:13:06;;;;;;;9.45;2.17;;;21.10;93.70;;;;;;4258389;27;20078;-78
2021/08/07 08:15:09;;;;;;;8.90;2.30;;;21.10;93.50;;;;;;4246300;27;20051;-76
2021/08/07 08:17:12;;;;;;;11.45;1.95;;;21.20;93.40;;;;;;4246526;28;20059;-75
2021/08/07 08:19:16;;;;;;;8.45;1.92;;;21.30;93.20;;;;;;4246013;28;20655;-75
2021/08/07 08:21:20;;;;;;;9.82;1.50;;;21.40;93.00;;;;;;4228130;28;20051;-78
2021/08/07 08:23:23;;;;;;;8.35;1.70;;;21.20;92.80;;;;;;4245968;28;20066;-78
2021/08/07 08:25:29;;;;;;;8.25;1.90;;;21.30;92.90;;;;;;4246020;28;20108;-76
2021/08/07 08:27:32;;;;;;;9.15;1.75;;;21.30;93.20;;;;;;4246101;28;20540;-77
2021/08/07 08:29:35;;;;;;;9.88;1.80;;;21.40;93.10;;;;;;4245899;28;20065;-78
2021/08/07 08:31:38;;;;;;;9.38;2.25;;;21.60;92.60;;;;;;4246218;28;20050;-76
2021/08/07 08:33:42;;;;;;;9.00;1.77;;;21.70;92.70;;;;;;4247470;28;20120;-76
2021/08/07 08:35:46;;;;;;;10.68;1.80;;;21.80;92.40;;;;;;4246908;28;20051;-77
2021/08/07 08:37:50;;;;;;;10.10;1.85;;;21.90;92.20;;;;;;4249019;27;20119;-74
2021/08/07 08:39:54;;;;;;;8.82;1.45;;;22.00;91.80;;;;;;4249172;27;20070;-75
2021/08/07 08:41:57;;;;;;;7.32;2.05;;;22.00;91.40;;;;;;4249319;27;20495;-75
2021/08/07 08:44:00;;;;;;;8.52;1.75;;;22.10;91.30;;;;;;4249280;27;20487;-75
2021/08/07 08:46:04;;;;;;;17.83;2.20;;;21.90;91.20;;;;;;4249057;27;20136;-75
2021/08/07 08:48:07;;;;;;;10.73;1.90;;;21.60;91.70;;;;;;4262331;27;20039;-74
2021/08/07 08:50:12;;;;;;;5.85;1.40;;;21.40;91.90;;;;;;4265001;27;20063;-75
2021/08/07 08:52:15;;;;;;;7.60;2.22;;;21.60;92.30;;;;;;4274894;27;20054;-83
2021/08/07 08:54:20;;;;;;;7.13;2.33;;;21.70;91.90;;;;;;4273544;27;20046;-75
2021/08/07 08:56:24;;;;;;;8.48;2.30;;;21.60;91.80;;;;;;4274174;27;20272;-75
2021/08/07 08:58:32;;;;;;;11.45;2.42;;;21.70;91.80;;;;;;4274906;27;20126;-79
2021/08/07 09:00:36;;;;;;;8.45;2.40;;;21.50;92.10;;;;;;4274922;27;20053;-76
2021/08/07 09:02:40;;;;;;;11.13;1.98;;;21.50;92.10;;;;;;4275081;27;20335;-75
2021/08/07 09:04:43;;;;;;;14.23;3.10;;;21.40;92.20;;;;;;4274832;27;20050;-76
2021/08/07 09:06:46;;;;;;;8.38;2.45;;;21.50;92.50;;;;;;4272335;27;20051;-75
2021/08/07 09:09:01;;;;;;;18.27;2.90;;;21.70;92.80;;;;;;4266100;27;20055;-83
2021/08/07 09:11:19;;;;;;;12.00;2.20;;;21.90;92.90;;;;;;4266989;27;20490;-78
2021/08/07 09:13:22;;;;;;;9.88;2.15;;;21.70;93.10;;;;;;4258252;27;20058;-81
2021/08/07 09:15:34;;;;;;;11.43;2.67;;;21.50;93.90;;;;;;4248332;27;20050;-80
2021/08/07 09:17:37;;;;;;;10.85;2.08;;;21.60;94.60;;;;;;4248232;27;20051;-80
2021/08/07 09:19:52;;;;;;;12.90;2.40;;;21.50;95.30;;;;;;4264241;27;20059;-84
2021/08/07 09:22:05;;;;;;;7.75;2.05;;;21.60;95.30;;;;;;4264450;27;20509;-81
2021/08/07 09:24:09;;;;;;;8.30;1.95;;;21.60;95.80;;;;;;4266745;27;20066;-84
2021/08/07 09:26:19;;;;;;;6.53;1.90;;;21.40;96.30;;;;;;4267003;27;20120;-78
2021/08/07 09:28:22;;;;;;;7.80;2.50;;;21.40;97.10;;;;;;4256184;27;20039;-80
2021/08/07 09:30:31;;;;;;;7.43;1.90;;;21.20;97.20;;;;;;4266369;27;20047;-78
2021/08/07 09:32:44;;;;;;;8.57;2.08;;;21.10;97.20;;;;;;4263819;27;20047;-84
2021/08/07 09:35:04;;;;;;;9.50;2.20;;;21.10;98.00;;;;;;4248998;27;20055;-80
2021/08/07 09:37:07;;;;;;;6.63;2.00;;;21.00;98.00;;;;;;4264881;27;20058;-83
2021/08/07 09:39:12;;;;;;;8.35;1.70;;;21.00;98.30;;;;;;4269509;27;20495;-80
2021/08/07 09:41:17;;;;;;;8.30;1.98;;;20.90;98.70;;;;;;4247523;27;20051;-77
2021/08/07 09:43:23;;;;;;;7.68;1.83;;;21.00;99.10;;;;;;4267543;27;20050;-78
2021/08/07 09:45:26;;;;;;;6.47;1.48;;;21.00;98.60;;;;;;4265363;27;20054;-77
2021/08/07 09:47:31;;;;;;;9.63;2.05;;;20.90;98.60;;;;;;4248285;27;20412;-75
2021/08/07 09:49:36;;;;;;;6.32;1.70;;;20.80;98.80;;;;;;4261638;27;20111;-78
2021/08/07 09:51:40;;;;;;;8.38;2.63;;;20.80;98.90;;;;;;4264855;27;20051;-77
2021/08/07 09:53:43;;;;;;;7.82;2.22;;;20.80;99.20;;;;;;4264896;27;20042;-76
2021/08/07 09:56:00;;;;;;;9.88;2.42;;;20.80;99.10;;;;;;4265424;27;20050;-77
2021/08/07 09:58:06;;;;;;;6.20;1.88;;;20.80;99.40;;;;;;4264069;27;20046;-77
2021/08/07 10:00:15;;;;;;;8.10;2.10;;;20.60;99.70;;;;;;4263210;27;20054;-80
2021/08/07 10:02:30;;;;;;;9.03;2.50;;;20.70;99.90;;;;;;4262734;27;20073;-79
2021/08/07 10:04:51;;;;;;;9.70;2.83;;;20.80;99.90;;;;;;4262988;27;20043;-77
2021/08/07 10:07:09;;;;;;;10.13;2.45;;;20.80;99.90;;;;;;4262622;27;20508;-78
2021/08/07 10:09:31;;;;;;;5.72;2.22;;;20.90;99.90;;;;;;4265658;27;20067;-83
2021/08/07 10:11:38;;;;;;;8.30;2.55;;;20.80;99.90;;;;;;4245827;27;20105;-78
2021/08/07 10:13:51;;;;;;;8.10;2.75;;;20.80;99.90;;;;;;4245359;27;20043;-79
2021/08/07 10:16:06;;;;;;;7.75;2.40;;;20.90;99.90;;;;;;4244730;27;20663;-83
2021/08/07 10:18:14;;;;;;;9.30;1.90;;;20.70;99.90;;;;;;4263603;27;20039;-76
2021/08/07 10:20:28;;;;;;;11.10;1.90;;;20.50;99.90;;;;;;4242799;27;20065;-75
2021/08/07 10:22:38;;;;;;;8.75;2.08;;;20.30;99.90;;;;;;4244420;27;20047;-77
2021/08/07 10:24:48;;;;;;;7.38;1.80;;;20.20;99.90;;;;;;4228687;28;20047;-74
2021/08/07 10:26:58;;;;;;;9.07;2.17;;;20.20;99.90;;;;;;4243735;27;20055;-75
2021/08/07 10:29:16;;;;;;;9.88;1.98;;;20.20;99.90;;;;;;4212358;28;20074;-76
2021/08/07 10:31:24;;;;;;;6.45;2.08;;;20.40;99.90;;;;;;4241686;27;20058;-77
2021/08/07 10:33:35;;;;;;;10.57;2.42;;;20.50;99.90;;;;;;4263422;27;20137;-74
2021/08/07 10:35:42;;;;;;;14.48;2.78;;;20.40;99.90;;;;;;4264034;27;20111;-72
2021/08/07 10:37:50;;;;;;;7.35;1.85;;;20.30;99.90;;;;;;4264506;27;20091;-73
2021/08/07 10:39:58;;;;;;;7.03;1.90;;;20.30;99.90;;;;;;4246086;27;20051;-73
2021/08/07 10:42:05;;;;;;;10.60;2.33;;;20.30;99.90;;;;;;4263442;27;20080;-74
2021/08/07 10:44:13;;;;;;;9.38;2.45;;;20.20;99.90;;;;;;4242501;27;20139;-76
2021/08/07 10:46:19;;;;;;;5.25;1.60;;;20.40;99.90;;;;;;4266010;27;20490;-76